createdAt,value
2023-03-29T00:00:40.365Z,4.58
2023-03-29T00:01:40.387Z,4.59
2023-03-29T00:02:40.418Z,4.59
2023-03-29T00:03:40.544Z,4.59
2023-03-29T00:04:40.336Z,4.58
2023-03-29T00:05:40.332Z,4.60
2023-03-29T00:06:40.291Z,4.62
2023-03-29T00:07:40.307Z,4.62
2023-03-29T00:08:40.292Z,4.65
2023-03-29T00:09:40.289Z,4.65
2023-03-29T00:10:40.256Z,4.66
2023-03-29T00:11:40.286Z,4.69
2023-03-29T00:12:40.230Z,4.67
2023-03-29T00:13:40.257Z,4.70
2023-03-29T00:14:40.211Z,4.72
2023-03-29T00:15:40.246Z,4.75
2023-03-29T00:16:40.225Z,4.77
2023-03-29T00:17:40.210Z,4.78
2023-03-29T00:18:40.164Z,4.80
2023-03-29T00:19:40.186Z,4.82
2023-03-29T00:20:40.154Z,4.86
2023-03-29T00:21:40.160Z,4.88
2023-03-29T00:22:40.127Z,4.91
2023-03-29T00:23:40.149Z,4.92
2023-03-29T00:24:40.107Z,4.97
2023-03-29T00:25:40.123Z,5.00
2023-03-29T00:26:40.081Z,5.02
2023-03-29T00:27:40.115Z,5.02
2023-03-29T00:28:40.059Z,5.03
2023-03-29T00:29:40.066Z,5.04
2023-03-29T00:30:40.045Z,5.02
2023-03-29T00:31:40.128Z,5.00
2023-03-29T00:32:40.062Z,5.02
2023-03-29T00:33:40.046Z,5.00
2023-03-29T00:34:39.994Z,4.99
2023-03-29T00:35:40.031Z,4.96
2023-03-29T00:36:39.976Z,4.94
2023-03-29T00:37:40.027Z,4.91
2023-03-29T00:38:39.963Z,4.88
2023-03-29T00:39:39.998Z,4.85
2023-03-29T00:40:39.961Z,4.82
2023-03-29T00:41:39.941Z,4.78
2023-03-29T00:42:39.923Z,4.77
2023-03-29T00:43:39.935Z,4.75
2023-03-29T00:44:39.914Z,4.75
2023-03-29T00:45:39.911Z,4.72
2023-03-29T00:46:39.955Z,4.72
2023-03-29T00:47:40.000Z,4.70
2023-03-29T00:48:39.856Z,4.70
2023-03-29T00:49:39.883Z,4.67
2023-03-29T00:50:39.847Z,4.66
2023-03-29T00:51:39.841Z,4.65
2023-03-29T00:52:39.818Z,4.63
2023-03-29T00:53:39.816Z,4.60
2023-03-29T00:54:39.792Z,4.58
2023-03-29T00:55:39.804Z,4.55
2023-03-29T00:56:40.157Z,4.52
2023-03-29T00:57:39.806Z,4.51
2023-03-29T00:58:39.745Z,4.51
2023-03-29T00:59:39.773Z,4.50
2023-03-29T01:00:39.729Z,4.51
2023-03-29T01:01:39.733Z,4.50
2023-03-29T01:02:40.003Z,4.48
2023-03-29T01:03:39.751Z,4.50
2023-03-29T01:04:39.692Z,4.48
2023-03-29T01:05:39.689Z,4.48
2023-03-29T01:06:39.762Z,4.50
2023-03-29T01:07:39.684Z,4.50
2023-03-29T01:08:39.670Z,4.50
2023-03-29T01:09:39.661Z,4.50
2023-03-29T01:10:39.630Z,4.50
2023-03-29T01:11:39.630Z,4.50
2023-03-29T01:12:39.598Z,4.51
2023-03-29T01:13:39.605Z,4.52
2023-03-29T01:14:39.585Z,4.52
2023-03-29T01:15:39.614Z,4.55
2023-03-29T01:16:39.595Z,4.55
2023-03-29T01:17:39.622Z,4.59
2023-03-29T01:18:39.535Z,4.59
2023-03-29T01:19:39.540Z,4.60
2023-03-29T01:20:39.523Z,4.62
2023-03-29T01:21:39.546Z,4.62
2023-03-29T01:22:39.496Z,4.63
2023-03-29T01:23:39.501Z,4.63
2023-03-29T01:24:39.479Z,4.63
2023-03-29T01:25:39.478Z,4.63
2023-03-29T01:26:39.456Z,4.66
2023-03-29T01:27:39.483Z,4.65
2023-03-29T01:28:39.446Z,4.63
2023-03-29T01:29:39.450Z,4.63
2023-03-29T01:30:39.406Z,4.63
2023-03-29T01:31:39.468Z,4.63
2023-03-29T01:32:39.453Z,4.63
2023-03-29T01:33:39.398Z,4.60
2023-03-29T01:34:39.385Z,4.60
2023-03-29T01:35:39.361Z,4.59
2023-03-29T01:36:39.362Z,4.58
2023-03-29T01:37:39.339Z,4.58
2023-03-29T01:38:39.357Z,4.55
2023-03-29T01:39:39.322Z,4.54
2023-03-29T01:40:39.320Z,4.55
2023-03-29T01:41:39.410Z,4.54
2023-03-29T01:42:39.312Z,4.58
2023-03-29T01:43:39.277Z,4.59
2023-03-29T01:44:39.282Z,4.58
2023-03-29T01:45:39.327Z,4.58
2023-03-29T01:46:39.461Z,4.58
2023-03-29T01:47:39.304Z,4.60
2023-03-29T01:48:39.236Z,4.60
2023-03-29T01:49:39.221Z,4.62
2023-03-29T01:50:39.224Z,4.62
2023-03-29T01:51:39.198Z,4.62
2023-03-29T01:52:39.191Z,4.65
2023-03-29T01:53:39.162Z,4.63
2023-03-29T01:54:39.167Z,4.63
2023-03-29T01:55:39.152Z,4.62
2023-03-29T01:56:39.231Z,4.62
2023-03-29T01:57:39.131Z,4.63
2023-03-29T01:58:39.148Z,4.63
2023-03-29T01:59:39.102Z,4.63
2023-03-29T02:00:39.105Z,4.63
2023-03-29T02:01:39.146Z,4.62
2023-03-29T02:02:39.227Z,4.60
2023-03-29T02:03:39.097Z,4.60
2023-03-29T02:04:39.066Z,4.58
2023-03-29T02:05:39.134Z,4.59
2023-03-29T02:06:39.041Z,4.55
2023-03-29T02:07:39.028Z,4.54
2023-03-29T02:08:39.043Z,4.54
2023-03-29T02:09:39.002Z,4.52
2023-03-29T02:10:39.028Z,4.51
2023-03-29T02:11:38.980Z,4.50
2023-03-29T02:12:38.983Z,4.51
2023-03-29T02:13:38.973Z,4.50
2023-03-29T02:14:38.962Z,4.48
2023-03-29T02:15:38.971Z,4.48
2023-03-29T02:16:38.953Z,4.50
2023-03-29T02:17:39.001Z,4.50
2023-03-29T02:18:38.912Z,4.51
2023-03-29T02:19:38.902Z,4.48
2023-03-29T02:20:39.139Z,4.48
2023-03-29T02:21:38.865Z,4.48
2023-03-29T02:22:38.902Z,4.48
2023-03-29T02:23:38.860Z,4.47
2023-03-29T02:24:38.849Z,4.47
2023-03-29T02:25:38.840Z,4.47
2023-03-29T02:26:38.829Z,4.45
2023-03-29T02:27:38.827Z,4.45
2023-03-29T02:28:38.810Z,4.48
2023-03-29T02:29:38.785Z,4.47
2023-03-29T02:30:38.807Z,4.47
2023-03-29T02:31:38.863Z,4.45
2023-03-29T02:32:38.802Z,4.45
2023-03-29T02:33:38.750Z,4.47
2023-03-29T02:34:38.746Z,4.47
2023-03-29T02:35:38.769Z,4.47
2023-03-29T02:36:38.758Z,4.48
2023-03-29T02:37:38.697Z,4.51
2023-03-29T02:38:38.725Z,4.52
2023-03-29T02:39:38.677Z,4.58
2023-03-29T02:40:38.682Z,4.59
2023-03-29T02:41:38.650Z,4.62
2023-03-29T02:42:38.686Z,4.63
2023-03-29T02:43:38.634Z,4.63
2023-03-29T02:44:38.655Z,4.66
2023-03-29T02:45:38.613Z,4.67
2023-03-29T02:46:38.663Z,4.67
2023-03-29T02:47:38.630Z,4.67
2023-03-29T02:48:38.615Z,4.69
2023-03-29T02:49:38.605Z,4.69
2023-03-29T02:50:38.615Z,4.66
2023-03-29T02:51:38.565Z,4.67
2023-03-29T02:52:38.584Z,4.69
2023-03-29T02:53:38.532Z,4.70
2023-03-29T02:54:38.551Z,4.72
2023-03-29T02:55:38.520Z,4.70
2023-03-29T02:56:38.568Z,4.69
2023-03-29T02:57:38.486Z,4.69
2023-03-29T02:58:38.492Z,4.67
2023-03-29T02:59:38.469Z,4.66
2023-03-29T03:00:38.495Z,4.63
2023-03-29T03:01:38.465Z,4.62
2023-03-29T03:02:38.539Z,4.60
2023-03-29T03:03:38.471Z,4.55
2023-03-29T03:04:38.467Z,4.55
2023-03-29T03:05:38.414Z,4.55
2023-03-29T03:06:38.423Z,4.55
2023-03-29T03:07:38.382Z,4.52
2023-03-29T03:08:38.390Z,4.52
2023-03-29T03:09:38.364Z,4.52
2023-03-29T03:10:38.388Z,4.51
2023-03-29T03:11:38.343Z,4.51
2023-03-29T03:12:38.364Z,4.51
2023-03-29T03:13:38.324Z,4.51
2023-03-29T03:14:38.327Z,4.48
2023-03-29T03:15:38.304Z,4.50
2023-03-29T03:16:38.350Z,4.48
2023-03-29T03:17:38.327Z,4.48
2023-03-29T03:18:38.284Z,4.48
2023-03-29T03:19:38.253Z,4.45
2023-03-29T03:20:38.279Z,4.44
2023-03-29T03:21:38.245Z,4.44
2023-03-29T03:22:38.243Z,4.40
2023-03-29T03:23:38.209Z,4.40
2023-03-29T03:24:38.228Z,4.36
2023-03-29T03:25:38.207Z,4.36
2023-03-29T03:26:38.260Z,4.34
2023-03-29T03:27:38.180Z,4.34
2023-03-29T03:28:38.172Z,4.34
2023-03-29T03:29:38.156Z,4.34
2023-03-29T03:30:38.147Z,4.36
2023-03-29T03:31:38.162Z,4.34
2023-03-29T03:32:38.139Z,4.36
2023-03-29T03:33:38.115Z,4.36
2023-03-29T03:34:38.110Z,4.40
2023-03-29T03:35:38.100Z,4.37
2023-03-29T03:36:38.101Z,4.37
2023-03-29T03:37:38.067Z,4.40
2023-03-29T03:38:38.087Z,4.37
2023-03-29T03:39:38.035Z,4.36
2023-03-29T03:40:38.115Z,4.36
2023-03-29T03:41:38.017Z,4.36
2023-03-29T03:42:38.066Z,4.37
2023-03-29T03:43:38.004Z,4.36
2023-03-29T03:44:38.011Z,4.36
2023-03-29T03:45:37.978Z,4.36
2023-03-29T03:46:38.004Z,4.36
2023-03-29T03:47:38.187Z,4.34
2023-03-29T03:48:37.980Z,4.34
2023-03-29T03:49:37.930Z,4.33
2023-03-29T03:50:37.934Z,4.33
2023-03-29T03:51:37.915Z,4.33
2023-03-29T03:52:37.932Z,4.33
2023-03-29T03:53:37.903Z,4.32
2023-03-29T03:54:37.905Z,4.32
2023-03-29T03:55:36.866Z,4.30
2023-03-29T03:56:37.957Z,4.29
2023-03-29T03:57:37.843Z,4.29
2023-03-29T03:58:37.876Z,4.27
2023-03-29T03:59:37.821Z,4.27
2023-03-29T04:00:37.870Z,4.27
2023-03-29T04:01:37.806Z,4.29
2023-03-29T04:02:37.849Z,4.29
2023-03-29T04:03:37.901Z,4.29
2023-03-29T04:04:37.806Z,4.27
2023-03-29T04:05:44.289Z,4.27
2023-03-29T04:06:37.764Z,4.27
2023-03-29T04:07:37.740Z,4.27
2023-03-29T04:08:37.772Z,4.27
2023-03-29T04:09:37.732Z,4.26
2023-03-29T04:10:37.738Z,4.27
2023-03-29T04:11:37.698Z,4.27
2023-03-29T04:12:37.716Z,4.26
2023-03-29T04:13:37.689Z,4.27
2023-03-29T04:14:37.700Z,4.27
2023-03-29T04:15:37.710Z,4.29
2023-03-29T04:16:37.665Z,4.29
2023-03-29T04:17:37.740Z,4.30
2023-03-29T04:18:37.805Z,4.30
2023-03-29T04:19:37.610Z,4.30
2023-03-29T04:20:37.643Z,4.32
2023-03-29T04:21:37.604Z,4.33
2023-03-29T04:22:37.612Z,4.32
2023-03-29T04:23:37.569Z,4.33
2023-03-29T04:24:37.585Z,4.32
2023-03-29T04:25:37.564Z,4.30
2023-03-29T04:26:37.554Z,4.32
2023-03-29T04:27:37.547Z,4.33
2023-03-29T04:28:37.534Z,4.34
2023-03-29T04:29:37.518Z,4.34
2023-03-29T04:30:37.530Z,4.34
2023-03-29T04:31:37.603Z,4.36
2023-03-29T04:32:37.551Z,4.36
2023-03-29T04:33:37.474Z,4.37
2023-03-29T04:34:37.490Z,4.40
2023-03-29T04:35:37.510Z,4.41
2023-03-29T04:36:37.421Z,4.41
2023-03-29T04:37:37.427Z,4.41
2023-03-29T04:38:37.408Z,4.41
2023-03-29T04:39:37.358Z,4.42
2023-03-29T04:40:37.374Z,4.44
2023-03-29T04:41:37.395Z,4.42
2023-03-29T04:42:37.540Z,4.42
2023-03-29T04:43:39.668Z,4.42
2023-03-29T04:44:37.404Z,4.42
2023-03-29T04:45:37.344Z,4.41
2023-03-29T04:46:37.382Z,4.40
2023-03-29T04:47:37.398Z,4.41
2023-03-29T04:48:37.340Z,4.42
2023-03-29T04:49:37.269Z,4.42
2023-03-29T04:50:37.270Z,4.41
2023-03-29T04:51:37.238Z,4.42
2023-03-29T04:52:37.251Z,4.42
2023-03-29T04:53:37.216Z,4.42
2023-03-29T04:54:37.231Z,4.42
2023-03-29T04:55:37.187Z,4.42
2023-03-29T04:56:37.214Z,4.41
2023-03-29T04:57:37.174Z,4.42
2023-03-29T04:58:37.189Z,4.44
2023-03-29T04:59:37.287Z,4.45
2023-03-29T05:00:36.157Z,4.44
2023-03-29T05:01:37.160Z,4.45
2023-03-29T05:02:37.141Z,4.47
2023-03-29T05:03:37.105Z,4.48
2023-03-29T05:04:37.160Z,4.48
2023-03-29T05:05:37.087Z,4.48
2023-03-29T05:06:37.084Z,4.50
2023-03-29T05:07:37.078Z,4.50
2023-03-29T05:08:37.063Z,4.51
2023-03-29T05:09:37.038Z,4.51
2023-03-29T05:10:37.052Z,4.51
2023-03-29T05:11:37.017Z,4.54
2023-03-29T05:12:37.037Z,4.54
2023-03-29T05:13:36.994Z,4.52
2023-03-29T05:14:37.010Z,4.52
2023-03-29T05:15:37.408Z,4.52
2023-03-29T05:16:37.010Z,4.55
2023-03-29T05:17:37.011Z,4.54
2023-03-29T05:18:36.976Z,4.58
2023-03-29T05:19:36.945Z,4.60
2023-03-29T05:20:36.948Z,4.59
2023-03-29T05:21:36.925Z,4.62
2023-03-29T05:22:36.913Z,4.60
2023-03-29T05:23:36.889Z,4.60
2023-03-29T05:24:36.912Z,4.60
2023-03-29T05:25:36.866Z,4.60
2023-03-29T05:26:36.890Z,4.60
2023-03-29T05:27:36.841Z,4.60
2023-03-29T05:28:36.858Z,4.60
2023-03-29T05:29:36.840Z,4.59
2023-03-29T05:30:36.830Z,4.60
2023-03-29T05:31:36.857Z,4.59
2023-03-29T05:32:36.963Z,4.58
2023-03-29T05:33:36.817Z,4.58
2023-03-29T05:34:36.788Z,4.59
2023-03-29T05:35:36.794Z,4.60
2023-03-29T05:36:36.771Z,4.65
2023-03-29T05:37:36.746Z,4.66
2023-03-29T05:38:36.781Z,4.69
2023-03-29T05:39:37.711Z,4.67
2023-03-29T05:40:36.740Z,4.69
2023-03-29T05:41:36.707Z,4.69
2023-03-29T05:42:36.708Z,4.69
2023-03-29T05:43:36.711Z,4.69
2023-03-29T05:44:36.660Z,4.70
2023-03-29T05:45:36.687Z,4.72
2023-03-29T05:46:36.641Z,4.73
2023-03-29T05:47:36.661Z,4.73
2023-03-29T05:48:36.637Z,4.75
2023-03-29T05:49:36.640Z,4.77
2023-03-29T05:50:36.602Z,4.80
2023-03-29T05:51:36.604Z,4.82
2023-03-29T05:52:36.576Z,4.82
2023-03-29T05:53:36.607Z,4.82
2023-03-29T05:54:36.557Z,4.82
2023-03-29T05:55:36.579Z,4.84
2023-03-29T05:56:36.546Z,4.86
2023-03-29T05:57:36.558Z,4.86
2023-03-29T05:58:36.513Z,4.89
2023-03-29T05:59:36.531Z,4.91
2023-03-29T06:00:36.496Z,4.96
2023-03-29T06:01:36.626Z,4.99
2023-03-29T06:02:36.558Z,5.04
2023-03-29T06:03:36.595Z,5.06
2023-03-29T06:04:36.672Z,5.10
2023-03-29T06:05:36.459Z,5.12
2023-03-29T06:06:36.432Z,5.17
2023-03-29T06:07:36.442Z,5.22
2023-03-29T06:08:36.413Z,5.22
2023-03-29T06:09:36.446Z,5.24
2023-03-29T06:10:36.387Z,5.25
2023-03-29T06:11:36.398Z,5.30
2023-03-29T06:12:36.369Z,5.36
2023-03-29T06:13:36.387Z,5.42
2023-03-29T06:14:36.351Z,5.45
2023-03-29T06:15:36.378Z,5.48
2023-03-29T06:16:36.396Z,5.48
2023-03-29T06:17:36.401Z,5.53
2023-03-29T06:18:36.311Z,5.51
2023-03-29T06:19:36.312Z,5.51
2023-03-29T06:20:36.298Z,5.54
2023-03-29T06:21:36.305Z,5.56
2023-03-29T06:22:36.263Z,5.57
2023-03-29T06:23:36.286Z,5.57
2023-03-29T06:24:36.240Z,5.57
2023-03-29T06:25:36.269Z,5.56
2023-03-29T06:26:36.229Z,5.54
2023-03-29T06:27:36.224Z,5.58
2023-03-29T06:28:36.200Z,5.61
2023-03-29T06:29:36.234Z,5.60
2023-03-29T06:30:36.176Z,5.58
2023-03-29T06:31:36.426Z,5.57
2023-03-29T06:32:36.225Z,5.60
2023-03-29T06:33:36.172Z,5.63
2023-03-29T06:34:38.480Z,5.65
2023-03-29T06:35:36.194Z,5.63
2023-03-29T06:36:36.119Z,5.65
2023-03-29T06:37:36.117Z,5.65
2023-03-29T06:38:36.099Z,5.67
2023-03-29T06:39:36.097Z,5.68
2023-03-29T06:40:36.074Z,5.67
2023-03-29T06:41:36.093Z,5.67
2023-03-29T06:42:36.067Z,5.74
2023-03-29T06:43:36.067Z,5.75
2023-03-29T06:44:36.030Z,5.76
2023-03-29T06:45:36.054Z,5.79
2023-03-29T06:46:36.084Z,5.81
2023-03-29T06:47:36.076Z,5.83
2023-03-29T06:48:35.993Z,5.86
2023-03-29T06:49:36.007Z,5.89
2023-03-29T06:50:35.985Z,5.96
2023-03-29T06:51:36.006Z,5.93
2023-03-29T06:52:35.956Z,5.90
2023-03-29T06:53:35.950Z,5.90
2023-03-29T06:54:35.923Z,5.93
2023-03-29T06:55:35.940Z,5.93
2023-03-29T06:56:35.903Z,6.00
2023-03-29T06:57:35.936Z,6.03
2023-03-29T06:58:35.887Z,6.09
2023-03-29T06:59:35.884Z,6.12
2023-03-29T07:00:35.913Z,6.17
2023-03-29T07:01:35.900Z,6.21
2023-03-29T07:02:35.884Z,6.27
2023-03-29T07:03:35.875Z,6.34
2023-03-29T07:04:35.876Z,6.40
2023-03-29T07:05:35.818Z,6.40
2023-03-29T07:06:35.790Z,6.41
2023-03-29T07:07:35.796Z,6.44
2023-03-29T07:08:35.769Z,6.46
2023-03-29T07:09:35.802Z,6.54
2023-03-29T07:10:35.748Z,6.52
2023-03-29T07:11:35.784Z,6.51
2023-03-29T07:12:35.726Z,6.48
2023-03-29T07:13:35.757Z,6.48
2023-03-29T07:14:35.706Z,6.41
2023-03-29T07:15:35.740Z,6.48
2023-03-29T07:16:35.753Z,6.55
2023-03-29T07:17:35.703Z,6.61
2023-03-29T07:18:35.662Z,6.66
2023-03-29T07:19:35.667Z,6.66
2023-03-29T07:20:35.645Z,6.67
2023-03-29T07:21:37.885Z,6.70
2023-03-29T07:22:35.625Z,6.77
2023-03-29T07:23:35.625Z,6.80
2023-03-29T07:24:35.596Z,6.85
2023-03-29T07:25:35.609Z,6.89
2023-03-29T07:26:35.593Z,6.91
2023-03-29T07:27:35.586Z,6.97
2023-03-29T07:28:35.556Z,7.02
2023-03-29T07:29:35.572Z,7.05
2023-03-29T07:30:35.540Z,7.07
2023-03-29T07:31:35.540Z,7.13
2023-03-29T07:32:35.577Z,7.20
2023-03-29T07:33:35.635Z,7.23
2023-03-29T07:34:35.487Z,7.30
2023-03-29T07:35:35.536Z,7.37
2023-03-29T07:36:35.481Z,7.42
2023-03-29T07:37:35.473Z,7.49
2023-03-29T07:38:35.446Z,7.58
2023-03-29T07:39:35.467Z,7.67
2023-03-29T07:40:35.424Z,7.79
2023-03-29T07:41:35.434Z,7.92
2023-03-29T07:42:35.415Z,8.05
2023-03-29T07:43:35.409Z,8.10
2023-03-29T07:44:35.380Z,8.05
2023-03-29T07:45:35.479Z,7.98
2023-03-29T07:46:35.357Z,7.93
2023-03-29T07:47:35.436Z,8.04
2023-03-29T07:48:35.347Z,8.12
2023-03-29T07:49:35.362Z,8.22
2023-03-29T07:50:35.316Z,8.38
2023-03-29T07:51:35.341Z,8.44
2023-03-29T07:52:35.307Z,8.61
2023-03-29T07:53:35.328Z,8.68
2023-03-29T07:54:35.273Z,8.79
2023-03-29T07:55:35.289Z,8.96
2023-03-29T07:56:35.251Z,9.20
2023-03-29T07:57:35.270Z,9.31
2023-03-29T07:58:35.228Z,9.47
2023-03-29T07:59:35.255Z,9.48
2023-03-29T08:00:35.232Z,9.43
2023-03-29T08:01:35.213Z,9.53
2023-03-29T08:02:35.197Z,9.39
2023-03-29T08:03:35.248Z,9.48
2023-03-29T08:04:35.265Z,9.68
2023-03-29T08:05:41.527Z,9.86
2023-03-29T08:06:35.141Z,9.94
2023-03-29T08:07:35.147Z,10.15
2023-03-29T08:08:35.124Z,10.33
2023-03-29T08:09:35.131Z,10.47
2023-03-29T08:10:35.111Z,10.52
2023-03-29T08:11:35.114Z,10.33
2023-03-29T08:12:35.084Z,10.26
2023-03-29T08:13:35.080Z,10.29
2023-03-29T08:14:35.053Z,10.67
2023-03-29T08:15:35.084Z,11.18
2023-03-29T08:16:35.055Z,11.60
2023-03-29T08:17:35.116Z,11.91
2023-03-29T08:18:35.112Z,12.19
2023-03-29T08:19:35.016Z,12.23
2023-03-29T08:20:34.992Z,12.52
2023-03-29T08:21:35.011Z,12.93
2023-03-29T08:22:34.970Z,13.10
2023-03-29T08:23:34.991Z,13.07
2023-03-29T08:24:34.946Z,12.79
2023-03-29T08:25:34.959Z,12.65
2023-03-29T08:26:34.941Z,12.45
2023-03-29T08:27:34.955Z,12.46
2023-03-29T08:28:34.902Z,12.67
2023-03-29T08:29:34.913Z,12.71
2023-03-29T08:30:34.890Z,13.04
2023-03-29T08:31:34.956Z,13.12
2023-03-29T08:32:34.873Z,13.29
2023-03-29T08:33:34.959Z,13.22
2023-03-29T08:34:34.860Z,13.03
2023-03-29T08:35:34.920Z,12.72
2023-03-29T08:36:34.839Z,12.60
2023-03-29T08:37:34.821Z,12.96
2023-03-29T08:38:34.797Z,13.38
2023-03-29T08:39:34.859Z,13.60
2023-03-29T08:40:34.800Z,13.77
2023-03-29T08:41:34.807Z,13.73
2023-03-29T08:42:34.807Z,13.96
2023-03-29T08:43:34.848Z,14.07
2023-03-29T08:44:34.729Z,14.12
2023-03-29T08:45:34.745Z,13.95
2023-03-29T08:46:35.432Z,14.21
2023-03-29T08:47:34.755Z,14.20
2023-03-29T08:48:34.688Z,13.62
2023-03-29T08:49:34.695Z,13.46
2023-03-29T08:50:34.661Z,13.46
2023-03-29T08:51:34.681Z,13.51
2023-03-29T08:52:34.644Z,13.33
2023-03-29T08:53:34.661Z,13.23
2023-03-29T08:54:34.612Z,13.08
2023-03-29T08:55:34.638Z,13.00
2023-03-29T08:56:34.593Z,12.86
2023-03-29T08:57:34.595Z,12.85
2023-03-29T08:58:34.595Z,12.77
2023-03-29T08:59:34.579Z,12.68
2023-03-29T09:00:34.548Z,12.53
2023-03-29T09:01:34.591Z,12.53
2023-03-29T09:02:34.631Z,12.64
2023-03-29T09:03:34.592Z,13.22
2023-03-29T09:04:34.517Z,13.89
2023-03-29T09:05:34.537Z,14.61
2023-03-29T09:06:34.480Z,15.03
2023-03-29T09:07:34.487Z,15.56
2023-03-29T09:08:34.460Z,15.74
2023-03-29T09:09:34.477Z,15.74
2023-03-29T09:10:34.435Z,15.74
2023-03-29T09:11:34.459Z,15.57
2023-03-29T09:12:36.485Z,15.49
2023-03-29T09:13:34.471Z,15.21
2023-03-29T09:14:34.408Z,14.62
2023-03-29T09:15:34.406Z,14.83
2023-03-29T09:16:34.451Z,15.17
2023-03-29T09:17:34.411Z,14.51
2023-03-29T09:18:34.352Z,14.47
2023-03-29T09:19:34.369Z,14.81
2023-03-29T09:20:34.337Z,14.73
2023-03-29T09:21:34.345Z,14.88
2023-03-29T09:22:34.303Z,14.96
2023-03-29T09:23:34.307Z,14.91
2023-03-29T09:24:34.287Z,14.89
2023-03-29T09:25:40.996Z,14.45
2023-03-29T09:26:34.285Z,14.07
2023-03-29T09:27:34.275Z,13.87
2023-03-29T09:28:34.237Z,13.96
2023-03-29T09:29:34.264Z,14.06
2023-03-29T09:30:34.223Z,14.15
2023-03-29T09:31:34.248Z,14.27
2023-03-29T09:32:34.203Z,14.29
2023-03-29T09:33:34.212Z,14.32
2023-03-29T09:34:34.189Z,14.36
2023-03-29T09:35:34.212Z,14.27
2023-03-29T09:36:34.164Z,13.92
2023-03-29T09:37:34.163Z,13.89
2023-03-29T09:38:34.156Z,14.02
2023-03-29T09:39:34.122Z,14.14
2023-03-29T09:40:34.145Z,14.18
2023-03-29T09:41:34.106Z,14.27
2023-03-29T09:42:34.111Z,14.29
2023-03-29T09:43:34.079Z,14.04
2023-03-29T09:44:34.092Z,13.82
2023-03-29T09:45:34.102Z,13.82
2023-03-29T09:46:34.054Z,13.85
2023-03-29T09:47:34.054Z,13.79
2023-03-29T09:48:34.035Z,13.91
2023-03-29T09:49:34.003Z,14.10
2023-03-29T09:50:34.100Z,14.14
2023-03-29T09:51:33.978Z,14.10
2023-03-29T09:52:34.008Z,14.07
2023-03-29T09:53:33.961Z,14.14
2023-03-29T09:54:33.966Z,14.09
2023-03-29T09:55:33.992Z,14.18
2023-03-29T09:56:33.958Z,14.10
2023-03-29T09:57:33.946Z,14.06
2023-03-29T09:58:33.940Z,13.96
2023-03-29T09:59:33.906Z,13.87
2023-03-29T10:00:33.917Z,13.88
2023-03-29T10:01:33.905Z,13.79
2023-03-29T10:02:33.909Z,13.70
2023-03-29T10:03:33.859Z,13.70
2023-03-29T10:04:33.900Z,13.73
2023-03-29T10:05:33.835Z,13.70
2023-03-29T10:06:33.836Z,13.66
2023-03-29T10:07:33.810Z,13.67
2023-03-29T10:08:33.824Z,13.57
2023-03-29T10:09:33.787Z,13.46
2023-03-29T10:10:33.793Z,13.39
2023-03-29T10:11:33.764Z,13.32
2023-03-29T10:12:33.770Z,13.33
2023-03-29T10:13:33.772Z,13.33
2023-03-29T10:14:33.770Z,13.33
2023-03-29T10:15:33.739Z,13.36
2023-03-29T10:16:33.765Z,13.39
2023-03-29T10:17:33.707Z,13.30
2023-03-29T10:18:33.707Z,13.25
2023-03-29T10:19:33.688Z,13.19
2023-03-29T10:20:33.699Z,13.23
2023-03-29T10:21:33.662Z,13.22
2023-03-29T10:22:33.678Z,13.20
2023-03-29T10:23:33.640Z,13.20
2023-03-29T10:24:33.651Z,13.26
2023-03-29T10:25:33.625Z,13.38
2023-03-29T10:26:33.645Z,13.46
2023-03-29T10:27:33.594Z,13.46
2023-03-29T10:28:33.593Z,13.42
2023-03-29T10:29:33.593Z,13.41
2023-03-29T10:30:33.585Z,13.38
2023-03-29T10:31:33.732Z,13.38
2023-03-29T10:32:33.698Z,13.45
2023-03-29T10:33:33.530Z,13.57
2023-03-29T10:34:33.534Z,13.82
2023-03-29T10:35:33.551Z,13.97
2023-03-29T10:36:33.508Z,14.07
2023-03-29T10:37:33.480Z,14.18
2023-03-29T10:38:33.495Z,14.35
2023-03-29T10:39:33.457Z,14.39
2023-03-29T10:40:33.505Z,14.45
2023-03-29T10:41:33.433Z,14.51
2023-03-29T10:42:33.454Z,14.58
2023-03-29T10:43:33.442Z,14.72
2023-03-29T10:44:33.494Z,14.65
2023-03-29T10:45:33.400Z,14.68
2023-03-29T10:46:33.422Z,14.51
2023-03-29T10:47:33.401Z,14.46
2023-03-29T10:48:33.386Z,14.57
2023-03-29T10:49:33.387Z,14.57
2023-03-29T10:50:33.363Z,14.62
2023-03-29T10:51:33.333Z,14.80
2023-03-29T10:52:33.344Z,14.91
2023-03-29T10:53:33.298Z,14.92
2023-03-29T10:54:33.307Z,14.81
2023-03-29T10:55:33.363Z,14.78
2023-03-29T10:56:33.313Z,14.80
2023-03-29T10:57:33.311Z,14.73
2023-03-29T10:58:33.258Z,14.72
2023-03-29T10:59:33.241Z,14.65
2023-03-29T11:00:33.254Z,14.62
2023-03-29T11:01:33.259Z,14.61
2023-03-29T11:02:33.331Z,14.73
2023-03-29T11:03:33.230Z,14.80
2023-03-29T11:04:33.207Z,14.91
2023-03-29T11:05:33.171Z,14.94
2023-03-29T11:06:33.169Z,14.98
2023-03-29T11:07:33.160Z,14.98
2023-03-29T11:08:33.170Z,15.06
2023-03-29T11:09:33.124Z,15.14
2023-03-29T11:10:33.127Z,15.28
2023-03-29T11:11:33.114Z,15.35
2023-03-29T11:12:33.142Z,15.60
2023-03-29T11:13:33.090Z,15.84
2023-03-29T11:14:33.092Z,15.96
2023-03-29T11:15:33.051Z,16.09
2023-03-29T11:16:33.084Z,15.92
2023-03-29T11:17:33.080Z,15.75
2023-03-29T11:18:33.043Z,15.71
2023-03-29T11:19:33.015Z,15.90
2023-03-29T11:20:33.031Z,15.97
2023-03-29T11:21:32.981Z,16.05
2023-03-29T11:22:32.988Z,16.00
2023-03-29T11:23:32.978Z,15.90
2023-03-29T11:24:32.972Z,15.75
2023-03-29T11:25:32.940Z,15.71
2023-03-29T11:26:32.947Z,15.62
2023-03-29T11:27:32.916Z,15.57
2023-03-29T11:28:32.936Z,15.57
2023-03-29T11:29:32.908Z,15.78
2023-03-29T11:30:32.915Z,15.83
2023-03-29T11:31:32.944Z,15.80
2023-03-29T11:32:32.902Z,15.93
2023-03-29T11:33:32.860Z,15.94
2023-03-29T11:34:32.893Z,16.02
2023-03-29T11:35:32.869Z,16.15
2023-03-29T11:36:32.855Z,16.11
2023-03-29T11:37:32.814Z,16.05
2023-03-29T11:38:32.827Z,15.97
2023-03-29T11:39:32.804Z,16.12
2023-03-29T11:40:32.824Z,16.27
2023-03-29T11:41:32.774Z,16.28
2023-03-29T11:42:32.770Z,16.46
2023-03-29T11:43:32.746Z,16.46
2023-03-29T11:44:32.753Z,16.38
2023-03-29T11:45:32.738Z,16.49
2023-03-29T11:46:32.811Z,16.73
2023-03-29T11:47:32.805Z,16.82
2023-03-29T11:48:32.703Z,16.48
2023-03-29T11:49:32.682Z,16.39
2023-03-29T11:50:35.332Z,16.35
2023-03-29T11:51:32.676Z,16.43
2023-03-29T11:52:32.724Z,16.56
2023-03-29T11:53:32.633Z,16.68
2023-03-29T11:54:32.656Z,16.76
2023-03-29T11:55:32.626Z,16.67
2023-03-29T11:56:32.623Z,16.73
2023-03-29T11:57:32.588Z,16.76
2023-03-29T11:58:33.192Z,16.98
2023-03-29T11:59:32.573Z,17.23
2023-03-29T12:00:32.600Z,17.49
2023-03-29T12:01:32.558Z,17.48
2023-03-29T12:02:32.632Z,17.51
2023-03-29T12:03:32.597Z,17.33
2023-03-29T12:04:32.625Z,17.78
2023-03-29T12:05:32.500Z,18.26
2023-03-29T12:06:32.530Z,18.50
2023-03-29T12:07:32.491Z,18.66
2023-03-29T12:08:32.490Z,18.88
2023-03-29T12:09:32.507Z,19.19
2023-03-29T12:10:33.692Z,19.29
2023-03-29T12:11:32.447Z,19.18
2023-03-29T12:12:32.457Z,18.84
2023-03-29T12:13:32.427Z,18.44
2023-03-29T12:14:32.424Z,18.41
2023-03-29T12:15:32.395Z,18.11
2023-03-29T12:16:32.502Z,17.74
2023-03-29T12:17:32.396Z,17.63
2023-03-29T12:18:32.418Z,17.77
2023-03-29T12:19:32.354Z,17.86
2023-03-29T12:20:32.369Z,17.95
2023-03-29T12:21:32.341Z,17.95
2023-03-29T12:22:32.367Z,17.74
2023-03-29T12:23:32.343Z,17.54
2023-03-29T12:24:32.334Z,17.26
2023-03-29T12:25:32.284Z,17.01
2023-03-29T12:26:32.290Z,16.91
2023-03-29T12:27:32.264Z,17.07
2023-03-29T12:28:32.264Z,17.25
2023-03-29T12:29:32.287Z,17.30
2023-03-29T12:30:34.259Z,17.30
2023-03-29T12:31:32.254Z,17.38
2023-03-29T12:32:32.276Z,17.15
2023-03-29T12:33:32.225Z,16.98
2023-03-29T12:34:32.207Z,16.89
2023-03-29T12:35:32.243Z,16.60
2023-03-29T12:36:32.162Z,16.46
2023-03-29T12:37:32.231Z,16.60
2023-03-29T12:38:32.144Z,16.66
2023-03-29T12:39:32.162Z,16.89
2023-03-29T12:40:32.130Z,16.96
2023-03-29T12:41:32.144Z,17.07
2023-03-29T12:42:32.100Z,17.04
2023-03-29T12:43:32.133Z,17.07
2023-03-29T12:44:32.204Z,17.06
2023-03-29T12:45:32.153Z,16.86
2023-03-29T12:46:32.111Z,16.48
2023-03-29T12:47:32.070Z,16.43
2023-03-29T12:48:32.041Z,16.56
2023-03-29T12:49:32.059Z,16.53
2023-03-29T12:50:32.025Z,16.66
2023-03-29T12:51:32.017Z,16.75
2023-03-29T12:52:32.002Z,16.76
2023-03-29T12:53:32.011Z,16.68
2023-03-29T12:54:31.973Z,16.64
2023-03-29T12:55:32.005Z,16.75
2023-03-29T12:56:31.949Z,16.83
2023-03-29T12:57:31.963Z,16.89
2023-03-29T12:58:31.928Z,16.89
2023-03-29T12:59:31.948Z,16.50
2023-03-29T13:00:31.929Z,16.28
2023-03-29T13:01:32.010Z,16.17
2023-03-29T13:02:32.007Z,15.93
2023-03-29T13:03:31.905Z,15.80
2023-03-29T13:04:31.878Z,15.82
2023-03-29T13:05:31.984Z,15.74
2023-03-29T13:06:31.842Z,15.74
2023-03-29T13:07:31.902Z,15.54
2023-03-29T13:08:31.828Z,15.64